Dinteldijk — PHMJ — position and weather

sailwx.info

Track history (hours):
 
Tides and Currents Weather Stations Pressure Air Temp Water Temp Dewpoint Dewpoint Depression Visibility Wind Speed Wind Dir Waves Ship Positions

Dinteldijk

Last reported at 2018-Jan-12 08:58 UTC. Time now 2018-Jan-20 13:34 UTC.
Position N 51°23' E 000°46'.
Warning: this ship's position is 8 days out of date.

Length 90 m; draft 6.3 m.

Type: Cargo ship. MMSI: 245044000.

Date/timePositionNaut miles runAvg speedWind from/ knotsBaromVisibWave heightAir tempDewpointWater temp
2018-Jan-12 08:58N 51°23' E 000°46'1 2.9
2018-Jan-12 08:30N 51°24' E 000°44'2 4.6
2018-Jan-12 08:00N 51°26' E 000°44'5 9.2
2018-Jan-12 07:30N 51°28' E 000°50'510.0
2018-Jan-12 07:00N 51°29' E 000°58'611.2
2018-Jan-12 06:30N 51°29' E 001°07'611.7
2018-Jan-12 06:00N 51°29' E 001°17'611.3
2018-Jan-12 05:30N 51°28' E 001°25'4 9.0
2018-Jan-12 05:00N 51°25' E 001°31'3 6.6
2018-Jan-12 04:30N 51°24' E 001°36'3 6.1
2018-Jan-12 04:00N 51°22' E 001°40'3 6.5
2018-Jan-12 03:30N 51°23' E 001°45'2 4.6
2018-Jan-12 03:00N 51°25' E 001°47'3 6.0
2018-Jan-12 02:31N 51°22' E 001°45'3 6.0
2018-Jan-12 02:00N 51°20' E 001°43'4 7.1
2018-Jan-12 01:30N 51°23' E 001°46'4 7.4
2018-Jan-12 01:01N 51°26' E 001°48'3 5.5
2018-Jan-12 00:30N 51°24' E 001°47'3 7.0
2018-Jan-12 00:00N 51°20' E 001°45'4 7.1
2018-Jan-11 23:30N 51°17' E 001°42'4 7.2
2018-Jan-11 23:01N 51°14' E 001°41'3 5.8
2018-Jan-11 22:31N 51°11' E 001°41'3 5.5
2018-Jan-11 22:01N 51°09' E 001°44'510.2
2018-Jan-11 21:30N 51°05' E 001°39'612.2
2018-Jan-11 21:00N 51°01' E 001°32'  
2018-Jan-07 17:23N 39°09' W 009°50'2 4.8
2018-Jan-07 17:00N 39°07' W 009°50'2 4.5
2018-Jan-07 16:30N 39°05' W 009°50'2 4.4
2018-Jan-07 16:01N 39°03' W 009°50'2 4.5
2018-Jan-07 15:30N 39°01' W 009°50'2 4.4
2018-Jan-07 15:01N 38°58' W 009°50'2 4.2
2018-Jan-07 14:30N 38°56' W 009°50'2 4.2
2018-Jan-07 14:00N 38°54' W 009°50'2 4.5
2018-Jan-07 13:30N 38°52' W 009°51'2 4.2
2018-Jan-07 13:00N 38°50' W 009°51'2 4.3
2018-Jan-07 12:31N 38°48' W 009°51'2 5.0
2018-Jan-07 12:00N 38°45' W 009°51'3 5.0
2018-Jan-07 11:30N 38°43' W 009°51'2 4.6
2018-Jan-07 11:00N 38°40' W 009°51'2 4.7
2018-Jan-07 10:30N 38°38' W 009°50'3 6.2
2018-Jan-07 10:00N 38°35' W 009°49'3 6.9
2018-Jan-07 09:30N 38°32' W 009°47'4 7.0
2018-Jan-07 09:00N 38°29' W 009°46'5 7.6
2018-Jan-07 08:24N 38°24' W 009°44'3 7.7
2018-Jan-07 08:00N 38°21' W 009°43'22 8.2
2018-Jan-07 05:15N 37°59' W 009°37'228 7.0
2018-Jan-05 20:35N 35°58' W 005°35'1 6.6
2018-Jan-05 20:29N 35°58' W 005°35'3 6.2
2018-Jan-05 20:00N 35°59' W 005°31'10 6.3
2018-Jan-05 18:23N 36°02' W 005°19'230 4.5
2018-Jan-03 15:45N 37°26' W 000°52'311.6
2018-Jan-03 15:30N 37°28' W 000°49'611.2
2018-Jan-03 15:00N 37°30' W 000°42'510.8
2018-Jan-03 14:30N 37°33' W 000°37'5 9.9
2018-Jan-03 14:00N 37°37' W 000°32'5 9.7
2018-Jan-03 13:30N 37°41' W 000°29'  
Track history (hours):
 
Tides and Currents Weather Stations Pressure Air Temp Water Temp Dewpoint Dewpoint Depression Visibility Wind Speed Wind Dir Waves Ship Positions

Dinteldijk

Last reported at 2018-Jan-12 08:58 UTC. Time now 2018-Jan-20 13:34 UTC.
Position N 51°23' E 000°46'.
Warning: this ship's position is 8 days out of date.

Length 90 m; draft 6.3 m.

Type: Cargo ship. MMSI: 245044000.

Date/timePositionNaut miles runAvg speedWind from/ knotsBaromVisibWave heightAir tempDewpointWater temp
2018-Jan-12 08:58N 51°23' E 000°46'1 2.9
2018-Jan-12 08:30N 51°24' E 000°44'2 4.6
2018-Jan-12 08:00N 51°26' E 000°44'5 9.2
2018-Jan-12 07:30N 51°28' E 000°50'510.0
2018-Jan-12 07:00N 51°29' E 000°58'611.2
2018-Jan-12 06:30N 51°29' E 001°07'611.7
2018-Jan-12 06:00N 51°29' E 001°17'611.3
2018-Jan-12 05:30N 51°28' E 001°25'4 9.0
2018-Jan-12 05:00N 51°25' E 001°31'3 6.6
2018-Jan-12 04:30N 51°24' E 001°36'3 6.1
2018-Jan-12 04:00N 51°22' E 001°40'3 6.5
2018-Jan-12 03:30N 51°23' E 001°45'2 4.6
2018-Jan-12 03:00N 51°25' E 001°47'3 6.0
2018-Jan-12 02:31N 51°22' E 001°45'3 6.0
2018-Jan-12 02:00N 51°20' E 001°43'4 7.1
2018-Jan-12 01:30N 51°23' E 001°46'4 7.4
2018-Jan-12 01:01N 51°26' E 001°48'3 5.5
2018-Jan-12 00:30N 51°24' E 001°47'3 7.0
2018-Jan-12 00:00N 51°20' E 001°45'4 7.1
2018-Jan-11 23:30N 51°17' E 001°42'4 7.2
2018-Jan-11 23:01N 51°14' E 001°41'3 5.8
2018-Jan-11 22:31N 51°11' E 001°41'3 5.5
2018-Jan-11 22:01N 51°09' E 001°44'510.2
2018-Jan-11 21:30N 51°05' E 001°39'612.2
2018-Jan-11 21:00N 51°01' E 001°32'  
2018-Jan-07 17:23N 39°09' W 009°50'2 4.8
2018-Jan-07 17:00N 39°07' W 009°50'2 4.5
2018-Jan-07 16:30N 39°05' W 009°50'2 4.4
2018-Jan-07 16:01N 39°03' W 009°50'2 4.5
2018-Jan-07 15:30N 39°01' W 009°50'2 4.4
2018-Jan-07 15:01N 38°58' W 009°50'2 4.2
2018-Jan-07 14:30N 38°56' W 009°50'2 4.2
2018-Jan-07 14:00N 38°54' W 009°50'2 4.5
2018-Jan-07 13:30N 38°52' W 009°51'2 4.2
2018-Jan-07 13:00N 38°50' W 009°51'2 4.3
2018-Jan-07 12:31N 38°48' W 009°51'2 5.0
2018-Jan-07 12:00N 38°45' W 009°51'3 5.0
2018-Jan-07 11:30N 38°43' W 009°51'2 4.6
2018-Jan-07 11:00N 38°40' W 009°51'2 4.7
2018-Jan-07 10:30N 38°38' W 009°50'3 6.2
2018-Jan-07 10:00N 38°35' W 009°49'3 6.9
2018-Jan-07 09:30N 38°32' W 009°47'4 7.0
2018-Jan-07 09:00N 38°29' W 009°46'5 7.6
2018-Jan-07 08:24N 38°24' W 009°44'3 7.7
2018-Jan-07 08:00N 38°21' W 009°43'22 8.2
2018-Jan-07 05:15N 37°59' W 009°37'228 7.0
2018-Jan-05 20:35N 35°58' W 005°35'1 6.6
2018-Jan-05 20:29N 35°58' W 005°35'3 6.2
2018-Jan-05 20:00N 35°59' W 005°31'10 6.3
2018-Jan-05 18:23N 36°02' W 005°19'230 4.5
2018-Jan-03 15:45N 37°26' W 000°52'311.6
2018-Jan-03 15:30N 37°28' W 000°49'611.2
2018-Jan-03 15:00N 37°30' W 000°42'510.8
2018-Jan-03 14:30N 37°33' W 000°37'5 9.9
2018-Jan-03 14:00N 37°37' W 000°32'5 9.7
2018-Jan-03 13:30N 37°41' W 000°29'  

Dump ship's entire track history